createdAt,value
2023-05-17T00:00:17.295Z,93658.52
2023-05-17T00:01:11.621Z,93650.39
2023-05-17T00:01:45.484Z,93659.86
2023-05-17T00:02:18.761Z,93656.16
2023-05-17T00:02:52.223Z,93657.46
2023-05-17T00:03:25.965Z,93662.86
2023-05-17T00:03:59.366Z,93659.58
2023-05-17T00:04:33.661Z,93649.54
2023-05-17T00:05:07.427Z,93656.27
2023-05-17T00:05:40.747Z,93654.84
2023-05-17T00:06:14.059Z,93654.69
2023-05-17T00:06:47.392Z,93654.98
2023-05-17T00:07:20.640Z,93651.42
2023-05-17T00:07:53.931Z,93651.64
2023-05-17T00:08:27.263Z,93656.48
2023-05-17T00:09:01.181Z,93657.27
2023-05-17T00:09:34.578Z,93653.80
2023-05-17T00:10:08.306Z,93659.17
2023-05-17T00:10:41.683Z,93650.74
2023-05-17T00:11:14.895Z,93651.38
2023-05-17T00:11:48.203Z,93653.70
2023-05-17T00:12:21.404Z,93655.98
2023-05-17T00:12:56.882Z,93653.77
2023-05-17T00:13:33.893Z,93654.79
2023-05-17T00:14:08.506Z,93655.00
2023-05-17T00:14:41.866Z,93647.38
2023-05-17T00:15:15.272Z,93650.97
2023-05-17T00:15:48.705Z,93650.64
2023-05-17T00:16:21.961Z,93650.94
2023-05-17T00:16:55.280Z,93648.31
2023-05-17T00:17:29.097Z,93640.90
2023-05-17T00:18:02.756Z,93656.80
2023-05-17T00:18:36.996Z,93654.66
2023-05-17T00:19:10.851Z,93657.30
2023-05-17T00:19:44.444Z,93656.98
2023-05-17T00:20:19.618Z,93652.42
2023-05-17T00:20:52.947Z,93654.79
2023-05-17T00:21:26.632Z,93654.56
2023-05-17T00:22:00.337Z,93658.60
2023-05-17T00:22:34.203Z,93653.14
2023-05-17T00:23:07.829Z,93653.77
2023-05-17T00:23:41.277Z,93654.10
2023-05-17T00:24:14.657Z,93652.39
2023-05-17T00:24:47.931Z,93654.36
2023-05-17T00:25:21.222Z,93650.91
2023-05-17T00:25:54.557Z,93655.70
2023-05-17T00:26:27.902Z,93657.63
2023-05-17T00:27:01.185Z,93655.06
2023-05-17T00:27:34.789Z,93661.17
2023-05-17T00:28:08.088Z,93657.52
2023-05-17T00:28:41.512Z,93651.46
2023-05-17T00:29:15.073Z,93658.29
2023-05-17T00:29:48.638Z,93652.48
2023-05-17T00:30:22.088Z,93663.21
2023-05-17T00:30:55.357Z,93656.02
2023-05-17T00:31:29.338Z,93661.30
2023-05-17T00:32:02.827Z,93654.98
2023-05-17T00:32:36.433Z,93657.17
2023-05-17T00:33:10.059Z,93659.70
2023-05-17T00:33:43.422Z,93660.59
2023-05-17T00:34:16.734Z,93663.35
2023-05-17T00:34:50.912Z,93660.83
2023-05-17T00:35:24.673Z,93658.45
2023-05-17T00:35:58.788Z,93662.41
2023-05-17T00:36:32.260Z,93666.77
2023-05-17T00:37:05.718Z,93668.46
2023-05-17T00:37:39.016Z,93665.60
2023-05-17T00:38:12.339Z,93663.70
2023-05-17T00:38:45.953Z,93663.44
2023-05-17T00:39:19.390Z,93668.30
2023-05-17T00:39:54.535Z,93664.89
2023-05-17T00:40:30.053Z,93671.51
2023-05-17T00:41:03.516Z,93665.67
2023-05-17T00:41:36.637Z,93671.88
2023-05-17T00:42:11.540Z,93667.65
2023-05-17T00:42:44.905Z,93668.55
2023-05-17T00:43:18.192Z,93671.73
2023-05-17T00:43:52.660Z,93667.34
2023-05-17T00:44:26.086Z,93666.16
2023-05-17T00:44:59.591Z,93670.20
2023-05-17T00:45:32.914Z,93663.39
2023-05-17T00:46:06.265Z,93661.68
2023-05-17T00:46:39.552Z,93664.72
2023-05-17T00:47:12.735Z,93667.91
2023-05-17T00:47:46.401Z,93666.66
2023-05-17T00:48:23.827Z,93666.92
2023-05-17T00:48:57.137Z,93663.83
2023-05-17T00:49:30.853Z,93664.05
2023-05-17T00:50:05.761Z,93667.91
2023-05-17T00:50:39.147Z,93667.91
2023-05-17T00:51:13.691Z,93662.48
2023-05-17T00:51:48.732Z,93663.16
2023-05-17T00:52:22.127Z,93673.55
2023-05-17T00:52:57.270Z,93665.27
2023-05-17T00:53:30.774Z,93666.30
2023-05-17T00:54:05.309Z,93669.26
2023-05-17T00:54:40.478Z,93666.17
2023-05-17T00:55:14.040Z,93664.77
2023-05-17T00:55:47.516Z,93665.92
2023-05-17T00:56:21.306Z,93666.14
2023-05-17T00:56:55.163Z,93664.72
2023-05-17T00:57:32.459Z,93664.48
2023-05-17T00:58:07.901Z,93661.89
2023-05-17T00:58:42.109Z,93670.68
2023-05-17T00:59:16.333Z,93669.13
2023-05-17T00:59:53.546Z,93669.96
2023-05-17T01:00:28.698Z,93667.70
2023-05-17T01:01:02.235Z,93675.48
2023-05-17T01:01:38.133Z,93674.65
2023-05-17T01:02:12.567Z,93678.45
2023-05-17T01:02:48.974Z,93674.42
2023-05-17T01:03:25.401Z,93677.22
2023-05-17T01:03:58.828Z,93678.83
2023-05-17T01:04:32.713Z,93674.10
2023-05-17T01:05:07.239Z,93677.54
2023-05-17T01:05:42.507Z,93675.70
2023-05-17T01:06:16.202Z,93681.55
2023-05-17T01:06:49.647Z,93681.50
2023-05-17T01:07:23.446Z,93677.62
2023-05-17T01:07:56.823Z,93678.38
2023-05-17T01:08:30.537Z,93681.36
2023-05-17T01:09:05.522Z,93674.85
2023-05-17T01:09:39.689Z,93682.05
2023-05-17T01:10:14.209Z,93672.35
2023-05-17T01:11:01.825Z,93683.16
2023-05-17T01:12:04.591Z,93680.20
2023-05-17T01:13:04.583Z,93688.02
2023-05-17T01:14:02.862Z,93680.86
2023-05-17T01:14:42.275Z,93691.05
2023-05-17T01:15:39.027Z,93689.86
2023-05-17T01:16:25.890Z,93681.48
2023-05-17T01:17:06.909Z,93691.64
2023-05-17T01:17:42.159Z,93691.80
2023-05-17T01:18:27.038Z,93689.70
2023-05-17T01:19:20.586Z,93697.47
2023-05-17T01:20:06.672Z,93693.05
2023-05-17T01:20:47.898Z,93695.50
2023-05-17T01:21:35.764Z,93696.91
2023-05-17T01:22:18.136Z,93699.96
2023-05-17T01:23:36.108Z,93700.10
2023-05-17T01:25:07.502Z,93703.13
2023-05-17T01:25:55.928Z,93700.98
2023-05-17T01:26:40.329Z,93701.91
2023-05-17T01:27:15.797Z,93699.55
2023-05-17T01:27:51.071Z,93699.61
2023-05-17T01:28:26.152Z,93698.20
2023-05-17T01:29:00.900Z,93696.89
2023-05-17T01:29:37.724Z,93701.98
2023-05-17T01:30:14.422Z,93702.90
2023-05-17T01:30:52.133Z,93699.38
2023-05-17T01:31:26.719Z,93701.23
2023-05-17T01:32:03.952Z,93700.60
2023-05-17T01:32:37.452Z,93697.31
2023-05-17T01:33:11.465Z,93701.72
2023-05-17T01:33:48.313Z,93704.00
2023-05-17T01:34:26.391Z,93705.73
2023-05-17T01:34:59.724Z,93706.44
2023-05-17T01:35:33.266Z,93704.76
2023-05-17T01:36:07.148Z,93708.20
2023-05-17T01:36:40.685Z,93706.98
2023-05-17T01:37:14.778Z,93708.12
2023-05-17T01:37:48.403Z,93708.70
2023-05-17T01:38:21.941Z,93707.61
2023-05-17T01:38:55.147Z,93715.08
2023-05-17T01:39:28.728Z,93714.52
2023-05-17T01:40:03.228Z,93712.00
2023-05-17T01:40:44.140Z,93718.33
2023-05-17T01:41:27.321Z,93714.52
2023-05-17T01:42:10.972Z,93712.77
2023-05-17T01:42:45.728Z,93707.66
2023-05-17T01:43:42.817Z,93711.78
2023-05-17T01:44:32.962Z,93713.59
2023-05-17T01:45:21.358Z,93714.94
2023-05-17T01:46:05.815Z,93714.48
2023-05-17T01:46:43.582Z,93717.27
2023-05-17T01:47:24.382Z,93717.56
2023-05-17T01:48:07.332Z,93719.79
2023-05-17T01:48:50.228Z,93723.81
2023-05-17T01:50:46.962Z,93721.48
2023-05-17T01:51:24.288Z,93721.81
2023-05-17T01:52:12.551Z,93718.61
2023-05-17T01:52:59.513Z,93723.70
2023-05-17T01:53:54.041Z,93724.77
2023-05-17T01:54:32.288Z,93720.59
2023-05-17T01:55:14.386Z,93719.97
2023-05-17T01:55:50.939Z,93721.98
2023-05-17T01:56:34.936Z,93717.19
2023-05-17T01:57:10.292Z,93720.91
2023-05-17T01:57:48.068Z,93720.77
2023-05-17T01:58:23.039Z,93716.86
2023-05-17T01:58:57.581Z,93718.25
2023-05-17T01:59:34.206Z,93721.81
2023-05-17T02:00:11.882Z,93717.27
2023-05-17T02:00:52.738Z,93720.05
2023-05-17T02:01:28.895Z,93720.58
2023-05-17T02:02:09.752Z,93720.00
2023-05-17T02:02:45.244Z,93717.75
2023-05-17T02:03:19.768Z,93716.56
2023-05-17T02:03:54.953Z,93718.77
2023-05-17T02:04:30.800Z,93718.21
2023-05-17T02:05:04.388Z,93718.30
2023-05-17T02:05:37.800Z,93720.28
2023-05-17T02:06:11.997Z,93719.67
2023-05-17T02:06:46.641Z,93716.48
2023-05-17T02:07:20.178Z,93713.73
2023-05-17T02:07:53.374Z,93719.93
2023-05-17T02:08:26.676Z,93715.93
2023-05-17T02:09:02.749Z,93717.48
2023-05-17T02:09:36.331Z,93723.00
2023-05-17T02:10:09.964Z,93719.18
2023-05-17T02:10:47.998Z,93716.66
2023-05-17T02:11:21.429Z,93714.98
2023-05-17T02:11:54.786Z,93717.40
2023-05-17T02:12:28.173Z,93718.63
2023-05-17T02:13:02.024Z,93720.34
2023-05-17T02:13:35.517Z,93721.62
2023-05-17T02:14:08.842Z,93723.33
2023-05-17T02:14:42.197Z,93722.95
2023-05-17T02:15:16.823Z,93718.80
2023-05-17T02:15:50.127Z,93725.21
2023-05-17T02:16:23.516Z,93723.90
2023-05-17T02:16:57.171Z,93723.98
2023-05-17T02:17:30.622Z,93724.13
2023-05-17T02:18:04.259Z,93727.25
2023-05-17T02:18:38.478Z,93727.35
2023-05-17T02:19:15.213Z,93724.04
2023-05-17T02:19:48.485Z,93724.80
2023-05-17T02:20:22.477Z,93729.95
2023-05-17T02:20:56.309Z,93728.20
2023-05-17T02:21:29.659Z,93728.45
2023-05-17T02:22:03.016Z,93726.90
2023-05-17T02:22:36.550Z,93729.71
2023-05-17T02:23:09.867Z,93725.14
2023-05-17T02:23:43.158Z,93725.83
2023-05-17T02:24:16.446Z,93729.27
2023-05-17T02:24:51.890Z,93728.52
2023-05-17T02:25:25.138Z,93726.89
2023-05-17T02:25:58.398Z,93725.04
2023-05-17T02:26:32.016Z,93730.45
2023-05-17T02:27:05.587Z,93727.55
2023-05-17T02:27:39.075Z,93728.43
2023-05-17T02:28:12.294Z,93722.69
2023-05-17T02:28:45.584Z,93726.77
2023-05-17T02:29:18.820Z,93723.81
2023-05-17T02:29:52.062Z,93725.48
2023-05-17T02:30:25.413Z,93726.27
2023-05-17T02:30:58.642Z,93720.88
2023-05-17T02:31:32.093Z,93726.43
2023-05-17T02:32:06.528Z,93727.30
2023-05-17T02:32:40.243Z,93723.95
2023-05-17T02:33:13.756Z,93727.98
2023-05-17T02:33:47.789Z,93731.50
2023-05-17T02:34:22.338Z,93721.71
2023-05-17T02:34:56.782Z,93725.46
2023-05-17T02:35:30.301Z,93725.41
2023-05-17T02:36:04.113Z,93724.48
2023-05-17T02:36:37.473Z,93723.25
2023-05-17T02:37:11.376Z,93722.66
2023-05-17T02:37:44.941Z,93720.29
2023-05-17T02:38:19.120Z,93720.29
2023-05-17T02:38:52.383Z,93720.70
2023-05-17T02:39:25.841Z,93722.05
2023-05-17T02:39:59.000Z,93721.64
2023-05-17T02:40:32.644Z,93723.84
2023-05-17T02:41:07.651Z,93720.06
2023-05-17T02:41:41.005Z,93720.05
2023-05-17T02:42:14.400Z,93725.26
2023-05-17T02:42:47.744Z,93719.25
2023-05-17T02:43:20.983Z,93716.45
2023-05-17T02:43:54.226Z,93722.35
2023-05-17T02:44:27.649Z,93720.78
2023-05-17T02:45:01.002Z,93719.34
2023-05-17T02:45:34.385Z,93719.86
2023-05-17T02:46:07.649Z,93718.27
2023-05-17T02:46:40.957Z,93717.23
2023-05-17T02:47:14.338Z,93725.30
2023-05-17T02:47:47.876Z,93722.84
2023-05-17T02:48:21.604Z,93721.30
2023-05-17T02:48:55.078Z,93718.80
2023-05-17T02:49:28.410Z,93718.52
2023-05-17T02:50:01.908Z,93723.00
2023-05-17T02:50:36.464Z,93724.42
2023-05-17T02:51:09.917Z,93725.66
2023-05-17T02:51:43.370Z,93730.98
2023-05-17T02:52:16.746Z,93728.98
2023-05-17T02:52:50.353Z,93729.20
2023-05-17T02:53:23.685Z,93733.09
2023-05-17T02:53:57.187Z,93723.28
2023-05-17T02:54:30.585Z,93737.45
2023-05-17T02:55:04.770Z,93734.92
2023-05-17T02:55:38.056Z,93736.16
2023-05-17T02:56:12.244Z,93737.30
2023-05-17T02:56:46.245Z,93740.95
2023-05-17T02:57:19.818Z,93737.53
2023-05-17T02:57:53.203Z,93738.45
2023-05-17T02:58:27.307Z,93742.80
2023-05-17T02:59:01.668Z,93743.55
2023-05-17T02:59:35.477Z,93745.48
2023-05-17T03:00:09.842Z,93744.42
2023-05-17T03:00:46.754Z,93747.48
2023-05-17T03:01:21.480Z,93746.17
2023-05-17T03:01:55.045Z,93753.72
2023-05-17T03:02:28.652Z,93751.17
2023-05-17T03:03:02.205Z,93752.63
2023-05-17T03:03:36.074Z,93752.26
2023-05-17T03:04:10.767Z,93754.48
2023-05-17T03:04:44.539Z,93752.48
2023-05-17T03:05:18.151Z,93753.32
2023-05-17T03:05:55.456Z,93754.03
2023-05-17T03:06:29.162Z,93763.21
2023-05-17T03:07:03.092Z,93760.55
2023-05-17T03:07:37.786Z,93757.95
2023-05-17T03:08:11.161Z,93758.45
2023-05-17T03:08:44.700Z,93764.15
2023-05-17T03:09:18.444Z,93757.31
2023-05-17T03:09:54.086Z,93763.73
2023-05-17T03:10:27.588Z,93761.92
2023-05-17T03:11:00.998Z,93762.91
2023-05-17T03:11:34.537Z,93756.83
2023-05-17T03:12:10.484Z,93762.13
2023-05-17T03:12:44.013Z,93764.38
2023-05-17T03:13:17.352Z,93761.94
2023-05-17T03:13:51.925Z,93760.73
2023-05-17T03:14:28.335Z,93761.86
2023-05-17T03:15:01.717Z,93764.08
2023-05-17T03:15:36.058Z,93767.20
2023-05-17T03:16:09.691Z,93769.66
2023-05-17T03:16:43.053Z,93765.21
2023-05-17T03:17:16.432Z,93762.28
2023-05-17T03:17:49.998Z,93767.70
2023-05-17T03:18:24.230Z,93762.38
2023-05-17T03:18:58.356Z,93766.58
2023-05-17T03:19:32.018Z,93765.55
2023-05-17T03:20:08.060Z,93759.77
2023-05-17T03:20:42.558Z,93756.80
2023-05-17T03:21:15.906Z,93760.73
2023-05-17T03:21:49.351Z,93765.27
2023-05-17T03:22:22.786Z,93758.38
2023-05-17T03:22:56.150Z,93757.88
2023-05-17T03:23:29.538Z,93756.45
2023-05-17T03:24:06.100Z,93757.66
2023-05-17T03:24:39.518Z,93760.17
2023-05-17T03:25:12.889Z,93761.66
2023-05-17T03:25:46.738Z,93757.41
2023-05-17T03:26:20.076Z,93759.33
2023-05-17T03:26:56.636Z,93768.49
2023-05-17T03:27:31.070Z,93769.10
2023-05-17T03:28:05.017Z,93762.48
2023-05-17T03:28:38.703Z,93769.20
2023-05-17T03:29:12.234Z,93771.48
2023-05-17T03:29:47.890Z,93774.12
2023-05-17T03:30:21.424Z,93777.50
2023-05-17T03:30:55.104Z,93776.90
2023-05-17T03:31:28.536Z,93771.04
2023-05-17T03:32:02.486Z,93775.55
2023-05-17T03:32:40.037Z,93773.35
2023-05-17T03:33:13.532Z,93776.33
2023-05-17T03:33:47.007Z,93780.36
2023-05-17T03:34:20.981Z,93778.26
2023-05-17T03:34:54.375Z,93774.06
2023-05-17T03:35:28.145Z,93777.50
2023-05-17T03:36:02.547Z,93774.30
2023-05-17T03:36:36.120Z,93775.98
2023-05-17T03:37:09.527Z,93777.56
2023-05-17T03:37:43.160Z,93777.82
2023-05-17T03:38:17.155Z,93780.52
2023-05-17T03:38:50.418Z,93779.74
2023-05-17T03:39:24.083Z,93778.35
2023-05-17T03:39:57.609Z,93782.63
2023-05-17T03:40:31.112Z,93778.47
2023-05-17T03:41:05.648Z,93773.73
2023-05-17T03:41:39.129Z,93781.23
2023-05-17T03:42:12.433Z,93778.90
2023-05-17T03:42:46.024Z,93784.73
2023-05-17T03:43:19.370Z,93782.15
2023-05-17T03:43:53.324Z,93785.44
2023-05-17T03:44:27.231Z,93783.58
2023-05-17T03:45:01.560Z,93783.73
2023-05-17T03:45:35.158Z,93786.50
2023-05-17T03:46:08.514Z,93783.02
2023-05-17T03:46:41.848Z,93789.30
2023-05-17T03:47:18.888Z,93782.84
2023-05-17T03:47:52.262Z,93788.69
2023-05-17T03:48:26.081Z,93792.95
2023-05-17T03:48:59.675Z,93791.73
2023-05-17T03:49:33.130Z,93785.52
2023-05-17T03:50:07.236Z,93794.90
2023-05-17T03:50:44.006Z,93788.08
2023-05-17T03:51:17.628Z,93798.89
2023-05-17T03:51:51.099Z,93794.86
2023-05-17T03:52:24.832Z,93794.23
2023-05-17T03:52:58.240Z,93798.82
2023-05-17T03:53:31.693Z,93794.46
2023-05-17T03:54:05.085Z,93802.78
2023-05-17T03:54:39.303Z,93803.12
2023-05-17T03:55:12.602Z,93801.96
2023-05-17T03:55:45.936Z,93806.98
2023-05-17T03:56:19.606Z,93811.50
2023-05-17T03:56:52.893Z,93811.45
2023-05-17T03:57:26.449Z,93812.14
2023-05-17T03:58:00.020Z,93811.30
2023-05-17T03:58:33.893Z,93807.88
2023-05-17T03:59:07.388Z,93812.46
2023-05-17T03:59:40.863Z,93812.02
2023-05-17T04:00:14.989Z,93807.80
2023-05-17T04:00:48.213Z,93806.16
2023-05-17T04:01:22.300Z,93813.84
2023-05-17T04:01:55.612Z,93815.88
2023-05-17T04:02:29.014Z,93815.82
2023-05-17T04:03:02.526Z,93815.77
2023-05-17T04:03:37.695Z,93822.12
2023-05-17T04:04:11.892Z,93823.42
2023-05-17T04:04:53.318Z,93825.33
2023-05-17T04:05:27.239Z,93820.23
2023-05-17T04:06:07.074Z,93819.56
2023-05-17T04:06:41.446Z,93824.52
2023-05-17T04:07:14.926Z,93816.63
2023-05-17T04:07:48.800Z,93824.48
2023-05-17T04:08:22.143Z,93814.95
2023-05-17T04:08:55.891Z,93824.86
2023-05-17T04:09:32.509Z,93819.67
2023-05-17T04:10:06.613Z,93821.46
2023-05-17T04:10:42.413Z,93827.67
2023-05-17T04:11:15.813Z,93827.05
2023-05-17T04:11:49.757Z,93824.96
2023-05-17T04:12:23.238Z,93831.08
2023-05-17T04:12:56.640Z,93828.80
2023-05-17T04:13:30.066Z,93827.52
2023-05-17T04:14:05.613Z,93832.23
2023-05-17T04:14:39.099Z,93843.27
2023-05-17T04:15:12.443Z,93838.55
2023-05-17T04:15:46.417Z,93846.27
2023-05-17T04:16:19.859Z,93850.84
2023-05-17T04:16:53.549Z,93846.93
2023-05-17T04:17:26.936Z,93849.35
2023-05-17T04:18:00.580Z,93851.52
2023-05-17T04:18:36.650Z,93852.84
2023-05-17T04:19:10.147Z,93854.73
2023-05-17T04:19:43.657Z,93856.92
2023-05-17T04:20:17.221Z,93857.20
2023-05-17T04:20:51.042Z,93854.99
2023-05-17T04:21:24.374Z,93850.40
2023-05-17T04:21:57.935Z,93860.01
2023-05-17T04:22:31.821Z,93860.36
2023-05-17T04:23:05.255Z,93862.33
2023-05-17T04:23:39.683Z,93865.66
2023-05-17T04:24:12.982Z,93868.15
2023-05-17T04:24:46.362Z,93868.17
2023-05-17T04:25:20.075Z,93863.50
2023-05-17T04:25:53.359Z,93866.40
2023-05-17T04:26:28.169Z,93863.17
2023-05-17T04:27:03.510Z,93870.28
2023-05-17T04:27:37.152Z,93871.89
2023-05-17T04:28:11.851Z,93861.43
2023-05-17T04:28:45.569Z,93866.80
2023-05-17T04:29:19.405Z,93871.34
2023-05-17T04:29:53.517Z,93866.44
2023-05-17T04:30:27.220Z,93869.50
2023-05-17T04:31:00.563Z,93872.02
2023-05-17T04:31:34.486Z,93866.94
2023-05-17T04:32:09.303Z,93871.05
2023-05-17T04:32:43.528Z,93869.52
2023-05-17T04:33:17.002Z,93875.43
2023-05-17T04:33:50.336Z,93874.63
2023-05-17T04:34:25.173Z,93878.83
2023-05-17T04:34:59.081Z,93873.55
2023-05-17T04:35:32.473Z,93876.05
2023-05-17T04:36:06.079Z,93876.19
2023-05-17T04:36:39.479Z,93879.73
2023-05-17T04:37:13.141Z,93874.87
2023-05-17T04:37:46.558Z,93885.41
2023-05-17T04:38:27.722Z,93884.38
2023-05-17T04:39:01.775Z,93879.63
2023-05-17T04:39:35.930Z,93884.14
2023-05-17T04:40:11.963Z,93885.41
2023-05-17T04:40:46.316Z,93891.73
2023-05-17T04:41:19.880Z,93897.77
2023-05-17T04:41:54.192Z,93892.95
2023-05-17T04:42:28.001Z,93898.13
2023-05-17T04:43:03.033Z,93896.98
2023-05-17T04:43:36.986Z,93896.63
2023-05-17T04:44:11.627Z,93895.52
2023-05-17T04:44:45.537Z,93889.83
2023-05-17T04:45:19.300Z,93890.84
2023-05-17T04:45:57.812Z,93892.05
2023-05-17T04:46:31.283Z,93901.90
2023-05-17T04:47:04.696Z,93899.59
2023-05-17T04:47:38.935Z,93891.89
2023-05-17T04:48:12.884Z,93894.21
2023-05-17T04:48:47.441Z,93896.22
2023-05-17T04:49:20.745Z,93892.28
2023-05-17T04:49:54.076Z,93897.60
2023-05-17T04:50:27.439Z,93894.10
2023-05-17T04:51:05.091Z,93899.56
2023-05-17T04:51:39.030Z,93895.98
2023-05-17T04:52:12.566Z,93894.05
2023-05-17T04:52:47.420Z,93891.80
2023-05-17T04:53:20.982Z,93896.27
2023-05-17T04:53:55.024Z,93897.13
2023-05-17T04:54:28.420Z,93894.62
2023-05-17T04:55:03.706Z,93889.75
2023-05-17T04:55:37.250Z,93886.73
2023-05-17T04:56:11.009Z,93893.79
2023-05-17T04:56:44.353Z,93892.63
2023-05-17T04:57:21.826Z,93896.58
2023-05-17T04:58:04.229Z,93896.65
2023-05-17T04:58:37.743Z,93895.44
2023-05-17T04:59:11.971Z,93903.35
2023-05-17T04:59:45.600Z,93896.31
2023-05-17T05:00:21.101Z,93903.14
2023-05-17T05:00:58.548Z,93898.35
2023-05-17T05:01:31.854Z,93902.23
2023-05-17T05:02:07.009Z,93900.30
2023-05-17T05:02:40.724Z,93903.33
2023-05-17T05:03:15.027Z,93901.98
2023-05-17T05:03:48.512Z,93905.89
2023-05-17T05:04:21.997Z,93908.62
2023-05-17T05:04:56.022Z,93908.09
2023-05-17T05:05:31.788Z,93910.03
2023-05-17T05:06:05.447Z,93904.75
2023-05-17T05:06:38.872Z,93907.27
2023-05-17T05:07:12.538Z,93910.95
2023-05-17T05:07:47.175Z,93904.99
2023-05-17T05:08:20.777Z,93900.92
2023-05-17T05:08:54.166Z,93901.08
2023-05-17T05:09:28.979Z,93905.65
2023-05-17T05:10:02.521Z,93894.38
2023-05-17T05:10:38.466Z,93910.35
2023-05-17T05:11:12.068Z,93914.68
2023-05-17T05:11:45.509Z,93916.67
2023-05-17T05:12:19.207Z,93912.30
2023-05-17T05:12:53.754Z,93915.42
2023-05-17T05:13:27.015Z,93919.58
2023-05-17T05:14:00.528Z,93918.91
2023-05-17T05:14:34.144Z,93915.69
2023-05-17T05:15:10.202Z,93921.52
2023-05-17T05:15:44.195Z,93923.52
2023-05-17T05:16:17.607Z,93923.55
2023-05-17T05:16:51.186Z,93930.57
2023-05-17T05:17:24.598Z,93923.06
2023-05-17T05:17:58.492Z,93927.98
2023-05-17T05:18:31.989Z,93929.39
2023-05-17T05:19:05.874Z,93929.25
2023-05-17T05:19:40.017Z,93928.70
2023-05-17T05:20:14.000Z,93929.48
2023-05-17T05:20:49.538Z,93927.92
2023-05-17T05:21:23.082Z,93930.73
2023-05-17T05:21:56.526Z,93929.37
2023-05-17T05:22:30.066Z,93927.57
2023-05-17T05:23:06.304Z,93921.73
2023-05-17T05:23:39.828Z,93928.21
2023-05-17T05:24:13.402Z,93933.05
2023-05-17T05:24:47.182Z,93928.54
2023-05-17T05:25:21.088Z,93935.78
2023-05-17T05:25:54.415Z,93934.25
2023-05-17T05:26:30.334Z,93934.57
2023-05-17T05:27:06.271Z,93933.80
2023-05-17T05:27:40.572Z,93937.91
2023-05-17T05:28:14.092Z,93937.81
2023-05-17T05:28:47.785Z,93939.98
2023-05-17T05:29:21.669Z,93941.04
2023-05-17T05:29:56.092Z,93943.90
2023-05-17T05:30:30.134Z,93939.86
2023-05-17T05:31:03.798Z,93941.24
2023-05-17T05:31:42.368Z,93939.20
2023-05-17T05:32:17.346Z,93944.33
2023-05-17T05:32:52.577Z,93948.98
2023-05-17T05:33:26.770Z,93938.63
2023-05-17T05:34:00.198Z,93946.89
2023-05-17T05:34:33.854Z,93945.52
2023-05-17T05:35:07.769Z,93946.52
2023-05-17T05:35:41.239Z,93949.13
2023-05-17T05:36:14.720Z,93948.73
2023-05-17T05:36:48.214Z,93950.70
2023-05-17T05:37:21.816Z,93948.58
2023-05-17T05:37:55.358Z,93953.62
2023-05-17T05:38:28.637Z,93947.11
2023-05-17T05:39:02.168Z,93950.11
2023-05-17T05:39:36.285Z,93950.05
2023-05-17T05:40:10.775Z,93957.50
2023-05-17T05:40:47.121Z,93951.32
2023-05-17T05:41:20.845Z,93957.63
2023-05-17T05:41:54.255Z,93955.30
2023-05-17T05:42:27.976Z,93955.27
2023-05-17T05:43:01.371Z,93958.27
2023-05-17T05:43:36.325Z,93959.48
2023-05-17T05:44:09.768Z,93964.88
2023-05-17T05:44:43.147Z,93966.48
2023-05-17T05:45:16.739Z,93960.86
2023-05-17T05:45:51.130Z,93963.09
2023-05-17T05:46:26.704Z,93963.94
2023-05-17T05:47:00.154Z,93967.35
2023-05-17T05:47:33.560Z,93969.18
2023-05-17T05:48:09.308Z,93966.05
2023-05-17T05:48:42.774Z,93970.36
2023-05-17T05:49:16.527Z,93967.51
2023-05-17T05:49:50.123Z,93970.52
2023-05-17T05:50:23.854Z,93971.40
2023-05-17T05:50:58.417Z,93973.61
2023-05-17T05:51:31.908Z,93974.80
2023-05-17T05:52:05.180Z,93977.06
2023-05-17T05:52:38.752Z,93975.38
2023-05-17T05:53:18.979Z,93977.77
2023-05-17T05:53:58.751Z,93977.44
2023-05-17T05:54:32.088Z,93978.67
2023-05-17T05:55:06.110Z,93981.94
2023-05-17T05:55:42.781Z,93982.12
2023-05-17T05:56:16.386Z,93989.28
2023-05-17T05:56:51.487Z,93983.89
2023-05-17T05:57:25.476Z,93982.73
2023-05-17T05:57:58.726Z,93987.77
2023-05-17T05:58:32.743Z,93988.90
2023-05-17T05:59:06.513Z,93986.61
2023-05-17T05:59:39.915Z,93988.27
2023-05-17T06:00:13.910Z,93990.59
2023-05-17T06:00:47.941Z,93987.69
2023-05-17T06:01:21.548Z,93986.63
2023-05-17T06:01:54.804Z,93989.43
2023-05-17T06:02:28.171Z,93989.32
2023-05-17T06:03:01.672Z,93988.59
2023-05-17T06:03:35.219Z,93985.30
2023-05-17T06:04:55.334Z,93992.95
2023-05-17T06:05:28.744Z,93986.44
2023-05-17T06:06:02.174Z,93986.16
2023-05-17T06:06:36.133Z,93981.60
2023-05-17T06:07:09.655Z,93991.67
2023-05-17T06:07:42.869Z,93990.24
2023-05-17T06:08:17.331Z,93993.34
2023-05-17T06:08:50.621Z,93994.14
2023-05-17T06:09:23.840Z,93991.58
2023-05-17T06:09:57.184Z,93995.81
2023-05-17T06:10:30.914Z,93995.27
2023-05-17T06:11:04.512Z,93991.48
2023-05-17T06:11:38.302Z,93993.57
2023-05-17T06:12:11.620Z,93995.85
2023-05-17T06:12:45.111Z,93995.35
2023-05-17T06:13:18.448Z,93997.06
2023-05-17T06:13:51.851Z,93998.81
2023-05-17T06:14:25.176Z,93993.84
2023-05-17T06:14:58.538Z,93995.56
2023-05-17T06:15:32.208Z,93995.23
2023-05-17T06:16:06.327Z,93997.08
2023-05-17T06:16:39.671Z,93998.83
2023-05-17T06:17:12.898Z,93998.12
2023-05-17T06:17:46.433Z,94003.78
2023-05-17T06:18:19.974Z,94006.56
2023-05-17T06:18:53.405Z,94001.00
2023-05-17T06:19:26.993Z,94000.12
2023-05-17T06:20:00.647Z,94004.23
2023-05-17T06:20:33.995Z,94003.17
2023-05-17T06:21:07.277Z,94000.81
2023-05-17T06:21:40.778Z,94005.52
2023-05-17T06:22:14.187Z,94004.98
2023-05-17T06:22:47.701Z,94005.48
2023-05-17T06:23:21.137Z,94005.48
2023-05-17T06:23:57.131Z,94004.25
2023-05-17T06:24:30.451Z,94008.28
2023-05-17T06:25:04.053Z,94010.13
2023-05-17T06:25:37.400Z,94008.66
2023-05-17T06:26:11.419Z,94006.20
2023-05-17T06:26:44.757Z,94009.25
2023-05-17T06:27:17.984Z,94008.60
2023-05-17T06:27:51.242Z,94015.72
2023-05-17T06:28:24.622Z,94016.18
2023-05-17T06:28:57.785Z,94018.15
2023-05-17T06:29:31.079Z,94015.53
2023-05-17T06:30:07.547Z,94016.18
2023-05-17T06:30:40.943Z,94016.64
2023-05-17T06:31:14.229Z,94018.89
2023-05-17T06:31:47.667Z,94018.14
2023-05-17T06:32:20.920Z,94017.27
2023-05-17T06:32:54.312Z,94013.27
2023-05-17T06:33:27.717Z,94012.67
2023-05-17T06:34:01.209Z,94018.19
2023-05-17T06:34:34.732Z,94014.22
2023-05-17T06:35:08.632Z,94016.95
2023-05-17T06:35:54.764Z,94017.23
2023-05-17T06:36:30.676Z,94018.52
2023-05-17T06:37:05.756Z,94018.30
2023-05-17T06:37:39.017Z,94021.77
2023-05-17T06:38:12.274Z,94020.77
2023-05-17T06:38:45.569Z,94017.60
2023-05-17T06:39:18.774Z,94023.90
2023-05-17T06:40:00.186Z,94022.85
2023-05-17T06:40:42.943Z,94026.75
2023-05-17T06:41:16.353Z,94028.70
2023-05-17T06:41:49.848Z,94022.69
2023-05-17T06:42:23.499Z,94027.23
2023-05-17T06:42:57.202Z,94032.34
2023-05-17T06:43:30.489Z,94031.08
2023-05-17T06:44:06.126Z,94032.35
2023-05-17T06:44:39.522Z,94031.08
2023-05-17T06:45:13.224Z,94033.76
2023-05-17T06:45:46.737Z,94029.71
2023-05-17T06:46:19.990Z,94030.21
2023-05-17T06:46:53.477Z,94033.38
2023-05-17T06:47:27.231Z,94035.05
2023-05-17T06:48:03.675Z,94035.41
2023-05-17T06:48:37.429Z,94035.92
2023-05-17T06:49:10.818Z,94032.52
2023-05-17T06:49:44.174Z,94028.74
2023-05-17T06:50:17.535Z,94030.61
2023-05-17T06:50:50.845Z,94034.18
2023-05-17T06:51:24.346Z,94034.48
2023-05-17T06:52:03.228Z,94036.48